Wetterdaten: Donnerstag, 21.05.2015
Datum Zeit Auen-Temp. Temp gefhlt Luftfeuchte Luftdruck Regen Wind Richtung Richtung Taupunkt Windben
21.05.2015 00:00 4,8 C 4,6 C 90 % 1016,8 hPa 0,0 mm 3,4 km/h (1 Bft) SW 225 3,3 C 8,0 km/h (2 Bft)
21.05.2015 00:05 4,8 C 4,6 C 90 % 1016,8 hPa 0,0 mm 2,8 km/h (1 Bft) W-SW 247 3,3 C 4,7 km/h (1 Bft)
21.05.2015 00:10 4,8 C 4,6 C 90 % 1016,8 hPa 0,0 mm 2,8 km/h (1 Bft) NW 315 3,3 C 4,1 km/h (1 Bft)
21.05.2015 00:15 4,8 C 4,6 C 90 % 1016,9 hPa 0,0 mm 2,6 km/h (1 Bft) W 270 3,3 C 0,0 km/h (0 Bft)
21.05.2015 00:20 4,8 C 4,6 C 90 % 1016,9 hPa 0,0 mm 1,8 km/h (1 Bft) W 270 3,3 C 3,6 km/h (1 Bft)
21.05.2015 00:25 4,7 C 4,5 C 90 % 1016,9 hPa 0,0 mm 2,1 km/h (1 Bft) SW 225 3,2 C 8,0 km/h (2 Bft)
21.05.2015 00:30 4,7 C 4,5 C 90 % 1016,9 hPa 0,0 mm 3,9 km/h (1 Bft) S 180 3,2 C 8,5 km/h (2 Bft)
21.05.2015 00:35 4,7 C 4,5 C 90 % 1016,9 hPa 0,0 mm 4,9 km/h (1 Bft) N-NW 337 3,2 C 9,3 km/h (2 Bft)
21.05.2015 00:40 4,6 C 4,3 C 90 % 1016,9 hPa 0,0 mm 6,0 km/h (2 Bft) NW 315 3,1 C 3,6 km/h (1 Bft)
21.05.2015 00:45 4,6 C 4,3 C 90 % 1016,9 hPa 0,0 mm 5,2 km/h (1 Bft) W 270 3,1 C 12,7 km/h (3 Bft)
21.05.2015 00:50 4,5 C 4,3 C 90 % 1016,9 hPa 0,0 mm 4,7 km/h (1 Bft) W-NW 292 3,0 C 7,8 km/h (2 Bft)
21.05.2015 00:55 4,5 C 4,3 C 89 % 1016,8 hPa 0,0 mm 4,4 km/h (1 Bft) W-SW 247 2,8 C 3,1 km/h (1 Bft)
21.05.2015 01:00 4,5 C 4,3 C 89 % 1016,8 hPa 0,0 mm 3,9 km/h (1 Bft) S-SO 157 2,8 C 2,8 km/h (1 Bft)
21.05.2015 01:05 4,5 C 4,3 C 89 % 1016,8 hPa 0,0 mm 3,9 km/h (1 Bft) W 270 2,8 C 0,0 km/h (0 Bft)
21.05.2015 01:10 4,4 C 4,1 C 89 % 1016,8 hPa 0,0 mm 4,9 km/h (1 Bft) S 180 2,7 C 10,4 km/h (2 Bft)
21.05.2015 01:15 4,4 C 4,1 C 89 % 1016,8 hPa 0,0 mm 5,4 km/h (1 Bft) W 270 2,7 C 18,6 km/h (3 Bft)
21.05.2015 01:20 4,4 C 4,2 C 89 % 1016,8 hPa 0,0 mm 4,4 km/h (1 Bft) W-SW 247 2,7 C 3,4 km/h (1 Bft)
21.05.2015 01:25 4,4 C 4,2 C 89 % 1016,8 hPa 0,0 mm 2,8 km/h (1 Bft) W-NW 292 2,7 C 8,3 km/h (2 Bft)
21.05.2015 01:30 4,4 C 4,2 C 89 % 1016,8 hPa 0,0 mm 3,1 km/h (1 Bft) W 270 2,7 C 14,5 km/h (3 Bft)
21.05.2015 01:35 4,3 C 4,2 C 87 % 1017,1 hPa 0,0 mm 3,6 km/h (1 Bft) SW 225 2,3 C 3,9 km/h (1 Bft)
21.05.2015 01:40 4,3 C 4,1 C 89 % 1017,1 hPa 0,0 mm 2,8 km/h (1 Bft) N-NO 22 2,7 C 0,0 km/h (0 Bft)
21.05.2015 01:45 4,3 C 4,1 C 89 % 1017,1 hPa 0,0 mm 2,1 km/h (1 Bft) W-SW 247 2,7 C 0,0 km/h (0 Bft)
21.05.2015 01:50 4,3 C 4,1 C 89 % 1017,1 hPa 0,0 mm 2,3 km/h (1 Bft) S 180 2,7 C 2,8 km/h (1 Bft)
21.05.2015 01:55 4,3 C 4,1 C 89 % 1016,9 hPa 0,0 mm 2,1 km/h (1 Bft) SW 225 2,7 C 6,7 km/h (2 Bft)
21.05.2015 02:00 4,2 C 4,1 C 87 % 1016,9 hPa 0,0 mm 2,1 km/h (1 Bft) SW 225 2,2 C 0,0 km/h (0 Bft)
21.05.2015 02:05 4,2 C 4,1 C 87 % 1016,9 hPa 0,0 mm 1,6 km/h (1 Bft) NW 315 2,2 C 0,0 km/h (0 Bft)
21.05.2015 02:10 4,2 C 4,1 C 87 % 1016,9 hPa 0,0 mm 1,0 km/h (0 Bft) S 180 2,2 C 4,9 km/h (1 Bft)
21.05.2015 02:15 4,2 C 4,0 C 89 % 1016,9 hPa 0,0 mm 1,8 km/h (1 Bft) SW 225 2,6 C 5,4 km/h (1 Bft)
21.05.2015 02:20 4,2 C 4,0 C 89 % 1016,9 hPa 0,0 mm 1,8 km/h (1 Bft) W-SW 247 2,6 C 0,0 km/h (0 Bft)
21.05.2015 02:25 4,2 C 4,0 C 89 % 1016,9 hPa 0,0 mm 1,3 km/h (1 Bft) SO 135 2,6 C 0,0 km/h (0 Bft)
21.05.2015 02:30 4,2 C 4,0 C 89 % 1016,9 hPa 0,0 mm 1,3 km/h (1 Bft) W-SW 247 2,6 C 2,8 km/h (1 Bft)
21.05.2015 02:35 4,2 C 4,0 C 89 % 1017,1 hPa 0,0 mm 2,1 km/h (1 Bft) S-SW 202 2,6 C 0,0 km/h (0 Bft)
21.05.2015 02:40 4,2 C 4,0 C 89 % 1017,1 hPa 0,0 mm 1,3 km/h (1 Bft) S-SO 157 2,6 C 0,0 km/h (0 Bft)
21.05.2015 02:45 4,2 C 4,0 C 89 % 1017,1 hPa 0,7 mm 0,3 km/h (0 Bft) W-SW 247 2,6 C 0,0 km/h (0 Bft)
21.05.2015 02:50 4,1 C 4,0 C 87 % 1017,1 hPa 0,0 mm 1,3 km/h (1 Bft) SW 225 2,1 C 0,0 km/h (0 Bft)
21.05.2015 02:55 4,1 C 4,0 C 87 % 1017,1 hPa 0,0 mm 1,8 km/h (1 Bft) S 180 2,1 C 0,0 km/h (0 Bft)
21.05.2015 03:00 4,2 C 4,0 C 89 % 1017,1 hPa 0,0 mm 1,0 km/h (0 Bft) W 270 2,6 C 4,9 km/h (1 Bft)
21.05.2015 03:05 4,1 C 3,9 C 89 % 1017,1 hPa 0,0 mm 1,3 km/h (1 Bft) SW 225 2,5 C 4,7 km/h (1 Bft)
21.05.2015 03:10 4,1 C 3,9 C 89 % 1017,1 hPa 0,0 mm 3,9 km/h (1 Bft) W-SW 247 2,5 C 3,4 km/h (1 Bft)
21.05.2015 03:15 4,1 C 3,9 C 90 % 1017,2 hPa 0,0 mm 4,9 km/h (1 Bft) S 180 2,6 C 5,7 km/h (1 Bft)
21.05.2015 03:20 4,1 C 3,8 C 90 % 1017,2 hPa 0,0 mm 5,7 km/h (1 Bft) S-SW 202 2,6 C 7,3 km/h (2 Bft)
21.05.2015 03:25 4,1 C 3,7 C 90 % 1017,2 hPa 0,0 mm 6,5 km/h (2 Bft) W-SW 247 2,6 C 11,1 km/h (2 Bft)
21.05.2015 03:30 4,1 C 3,6 C 90 % 1017,2 hPa 0,0 mm 7,3 km/h (2 Bft) N-NW 337 2,6 C 9,3 km/h (2 Bft)
21.05.2015 03:35 4,1 C 3,6 C 90 % 1017,4 hPa 0,0 mm 7,0 km/h (2 Bft) SW 225 2,6 C 8,3 km/h (2 Bft)
21.05.2015 03:40 4,1 C 3,8 C 90 % 1017,4 hPa 0,0 mm 5,4 km/h (1 Bft) S 180 2,6 C 4,1 km/h (1 Bft)
21.05.2015 03:45 4,1 C 3,9 C 90 % 1017,4 hPa 0,0 mm 4,7 km/h (1 Bft) SW 225 2,6 C 7,3 km/h (2 Bft)
21.05.2015 03:50 4,1 C 3,9 C 90 % 1017,4 hPa 0,0 mm 4,4 km/h (1 Bft) SW 225 2,6 C 3,6 km/h (1 Bft)
21.05.2015 03:55 4,1 C 3,9 C 90 % 1017,4 hPa 0,0 mm 4,1 km/h (1 Bft) SW 225 2,6 C 5,7 km/h (1 Bft)
21.05.2015 04:00 4,1 C 4,0 C 87 % 1017,4 hPa 0,0 mm 2,8 km/h (1 Bft) O-SO 112 2,1 C 0,0 km/h (0 Bft)
21.05.2015 04:05 4,1 C 4,0 C 87 % 1017,4 hPa 0,0 mm 2,3 km/h (1 Bft) W-SW 247 2,1 C 0,0 km/h (0 Bft)
21.05.2015 04:10 4,2 C 4,0 C 90 % 1017,4 hPa 0,0 mm 1,8 km/h (1 Bft) W 270 2,7 C 4,1 km/h (1 Bft)
21.05.2015 04:15 4,2 C 4,0 C 90 % 1017,6 hPa 0,0 mm 1,6 km/h (1 Bft) SW 225 2,7 C 0,0 km/h (0 Bft)
21.05.2015 04:20 4,1 C 3,9 C 90 % 1017,6 hPa 0,7 mm 1,6 km/h (1 Bft) W 270 2,6 C 0,0 km/h (0 Bft)
21.05.2015 04:25 4,1 C 3,9 C 90 % 1017,6 hPa 0,0 mm 1,3 km/h (1 Bft) S-SW 202 2,6 C 5,2 km/h (1 Bft)
21.05.2015 04:30 4,1 C 3,9 C 90 % 1017,6 hPa 0,0 mm 2,1 km/h (1 Bft) W-SW 247 2,6 C 7,8 km/h (2 Bft)
21.05.2015 04:35 4,1 C 3,9 C 90 % 1017,7 hPa 0,0 mm 4,1 km/h (1 Bft) S-SW 202 2,6 C 7,3 km/h (2 Bft)
21.05.2015 04:40 4,0 C 3,6 C 90 % 1017,7 hPa 0,0 mm 6,7 km/h (2 Bft) SW 225 2,5 C 7,8 km/h (2 Bft)
21.05.2015 04:45 4,0 C 3,5 C 90 % 1017,7 hPa 0,0 mm 7,0 km/h (2 Bft) SW 225 2,5 C 9,3 km/h (2 Bft)
21.05.2015 04:50 4,0 C 3,5 C 90 % 1017,7 hPa 0,0 mm 6,7 km/h (2 Bft) S 180 2,5 C 4,7 km/h (1 Bft)
21.05.2015 04:55 3,9 C 3,4 C 90 % 1017,6 hPa 0,0 mm 6,7 km/h (2 Bft) SW 225 2,4 C 10,1 km/h (2 Bft)
21.05.2015 05:00 3,9 C 3,5 C 90 % 1017,6 hPa 0,7 mm 6,0 km/h (2 Bft) S 180 2,4 C 5,4 km/h (1 Bft)
21.05.2015 05:05 3,9 C 3,5 C 90 % 1017,6 hPa 0,0 mm 5,4 km/h (1 Bft) S 180 2,4 C 6,0 km/h (2 Bft)
21.05.2015 05:10 3,9 C 3,7 C 90 % 1017,6 hPa 0,0 mm 4,4 km/h (1 Bft) SW 225 2,4 C 4,1 km/h (1 Bft)
21.05.2015 05:15 3,9 C 3,7 C 90 % 1017,7 hPa 0,0 mm 4,1 km/h (1 Bft) S 180 2,4 C 6,5 km/h (2 Bft)
21.05.2015 05:20 3,9 C 3,7 C 90 % 1017,7 hPa 0,0 mm 3,6 km/h (1 Bft) W-SW 247 2,4 C 4,1 km/h (1 Bft)
21.05.2015 05:25 3,9 C 3,7 C 90 % 1017,7 hPa 0,0 mm 3,1 km/h (1 Bft) S-SW 202 2,4 C 4,1 km/h (1 Bft)
21.05.2015 05:30 3,8 C 3,6 C 90 % 1017,7 hPa 0,0 mm 3,9 km/h (1 Bft) SO 135 2,3 C 8,0 km/h (2 Bft)
21.05.2015 05:35 3,8 C 3,6 C 90 % 1017,8 hPa 0,0 mm 4,1 km/h (1 Bft) SW 225 2,3 C 2,6 km/h (1 Bft)
21.05.2015 05:40 3,8 C 3,6 C 90 % 1017,8 hPa 0,0 mm 3,9 km/h (1 Bft) SW 225 2,3 C 4,7 km/h (1 Bft)
21.05.2015 05:45 3,8 C 3,6 C 90 % 1017,8 hPa 0,0 mm 2,6 km/h (1 Bft) S-SW 202 2,3 C 0,0 km/h (0 Bft)
21.05.2015 05:50 3,8 C 3,7 C 88 % 1017,8 hPa 0,0 mm 1,6 km/h (1 Bft) S-SO 157 2,0 C 0,0 km/h (0 Bft)
21.05.2015 05:55 3,8 C 3,7 C 88 % 1018,1 hPa 0,0 mm 1,0 km/h (0 Bft) SW 225 2,0 C 0,0 km/h (0 Bft)
21.05.2015 06:00 3,8 C 3,7 C 88 % 1018,1 hPa 0,7 mm 0,0 km/h (0 Bft) S 180 2,0 C 0,0 km/h (0 Bft)
21.05.2015 06:05 3,8 C 3,6 C 90 % 1018,1 hPa 0,0 mm 0,8 km/h (0 Bft) SO 135 2,3 C 2,8 km/h (1 Bft)
21.05.2015 06:10 3,8 C 3,6 C 90 % 1018,1 hPa 0,0 mm 1,3 km/h (1 Bft) S 180 2,3 C 6,2 km/h (2 Bft)
21.05.2015 06:15 3,8 C 3,6 C 90 % 1018,0 hPa 0,0 mm 2,1 km/h (1 Bft) S 180 2,3 C 0,0 km/h (0 Bft)
21.05.2015 06:20 3,8 C 3,6 C 91 % 1018,0 hPa 0,0 mm 2,8 km/h (1 Bft) W 270 2,5 C 0,0 km/h (0 Bft)
21.05.2015 06:25 3,8 C 3,6 C 91 % 1018,0 hPa 0,0 mm 1,8 km/h (1 Bft) SW 225 2,5 C 3,1 km/h (1 Bft)
21.05.2015 06:30 3,8 C 3,7 C 88 % 1018,0 hPa 0,7 mm 2,1 km/h (1 Bft) SW 225 2,0 C 5,2 km/h (1 Bft)
21.05.2015 06:35 3,8 C 3,6 C 91 % 1018,3 hPa 0,0 mm 1,8 km/h (1 Bft) S 180 2,5 C 0,0 km/h (0 Bft)
21.05.2015 06:40 3,8 C 3,7 C 88 % 1018,3 hPa 0,0 mm 1,0 km/h (0 Bft) W 270 2,0 C 3,4 km/h (1 Bft)
21.05.2015 06:45 3,8 C 3,7 C 88 % 1018,3 hPa 0,0 mm 0,3 km/h (0 Bft) S 180 2,0 C 0,0 km/h (0 Bft)
21.05.2015 06:50 3,8 C 3,7 C 88 % 1018,3 hPa 0,0 mm 0,8 km/h (0 Bft) W-SW 247 2,0 C 3,6 km/h (1 Bft)
21.05.2015 06:55 3,8 C 3,7 C 88 % 1018,3 hPa 0,0 mm 1,0 km/h (0 Bft) SW 225 2,0 C 0,0 km/h (0 Bft)
21.05.2015 07:00 3,8 C 3,7 C 88 % 1018,3 hPa 0,0 mm 1,3 km/h (1 Bft) S 180 2,0 C 2,6 km/h (1 Bft)
21.05.2015 07:05 3,8 C 3,7 C 88 % 1018,3 hPa 0,0 mm 1,0 km/h (0 Bft) S-SW 202 2,0 C 4,1 km/h (1 Bft)
21.05.2015 07:10 3,6 C 3,6 C 88 % 1018,3 hPa 0,7 mm 3,6 km/h (1 Bft) S-SO 157 1,8 C 3,4 km/h (1 Bft)
21.05.2015 07:15 3,6 C 3,6 C 88 % 1018,4 hPa 0,0 mm 4,4 km/h (1 Bft) S-SW 202 1,8 C 0,0 km/h (0 Bft)
21.05.2015 07:20 3,6 C 3,6 C 88 % 1018,4 hPa 0,0 mm 1,6 km/h (1 Bft) W-SW 247 1,8 C 0,0 km/h (0 Bft)
21.05.2015 07:25 3,6 C 3,6 C 88 % 1018,4 hPa 0,0 mm 0,5 km/h (0 Bft) S 180 1,8 C 0,0 km/h (0 Bft)
21.05.2015 07:30 3,6 C 3,7 C 88 % 1018,4 hPa 0,0 mm 0,3 km/h (0 Bft) W-SW 247 1,8 C 0,0 km/h (0 Bft)
21.05.2015 07:35 3,8 C 3,7 C 88 % 1018,5 hPa 0,0 mm 0,3 km/h (0 Bft) SW 225 2,0 C 0,0 km/h (0 Bft)
21.05.2015 07:40 3,9 C 3,9 C 88 % 1018,5 hPa 0,0 mm 0,3 km/h (0 Bft) S 180 2,1 C 0,0 km/h (0 Bft)
21.05.2015 07:45 3,9 C 4,1 C 88 % 1018,5 hPa 0,0 mm 0,0 km/h (0 Bft) W-SW 247 2,1 C 0,0 km/h (0 Bft)
21.05.2015 07:50 3,9 C 4,1 C 88 % 1018,5 hPa 0,0 mm 0,0 km/h (0 Bft) W 270 2,1 C 0,0 km/h (0 Bft)
21.05.2015 07:55 3,9 C 4,1 C 88 % 1018,5 hPa 0,0 mm 0,0 km/h (0 Bft) W 270 2,1 C 0,0 km/h (0 Bft)
21.05.2015 08:00 3,9 C 4,1 C 88 % 1018,5 hPa 0,0 mm 0,8 km/h (0 Bft) S-SW 202 2,1 C 4,4 km/h (1 Bft)
21.05.2015 08:05 3,9 C 4,1 C 88 % 1018,5 hPa 0,0 mm 1,3 km/h (1 Bft) W 270 2,1 C 2,6 km/h (1 Bft)
21.05.2015 08:10 4,0 C 4,2 C 88 % 1018,5 hPa 0,0 mm 1,0 km/h (0 Bft) W 270 2,2 C 0,0 km/h (0 Bft)
21.05.2015 08:15 4,0 C 4,3 C 88 % 1018,8 hPa 0,0 mm 0,8 km/h (0 Bft) W 270 2,2 C 3,1 km/h (1 Bft)
21.05.2015 08:20 4,0 C 4,5 C 88 % 1018,8 hPa 0,7 mm 1,8 km/h (1 Bft) S 180 2,2 C 0,0 km/h (0 Bft)
21.05.2015 08:25 4,2 C 4,7 C 88 % 1018,8 hPa 0,0 mm 2,3 km/h (1 Bft) SW 225 2,4 C 2,6 km/h (1 Bft)
21.05.2015 08:30 4,4 C 5,0 C 88 % 1018,8 hPa 0,0 mm 2,1 km/h (1 Bft) W-SW 247 2,6 C 4,4 km/h (1 Bft)
21.05.2015 08:35 4,6 C 5,3 C 88 % 1018,8 hPa 0,0 mm 2,1 km/h (1 Bft) W-SW 247 2,8 C 4,4 km/h (1 Bft)
21.05.2015 08:40 4,7 C 5,3 C 88 % 1018,8 hPa 0,0 mm 1,8 km/h (1 Bft) S 180 2,9 C 0,0 km/h (0 Bft)
21.05.2015 08:45 4,8 C 5,3 C 88 % 1018,8 hPa 0,0 mm 2,3 km/h (1 Bft) W-SW 247 3,0 C 6,7 km/h (2 Bft)
21.05.2015 08:50 4,7 C 5,2 C 88 % 1018,8 hPa 0,0 mm 2,6 km/h (1 Bft) SW 225 2,9 C 8,8 km/h (2 Bft)
21.05.2015 08:55 4,7 C 5,1 C 88 % 1018,8 hPa 0,0 mm 3,9 km/h (1 Bft) W-SW 247 2,9 C 4,4 km/h (1 Bft)
21.05.2015 09:00 4,8 C 5,4 C 88 % 1018,8 hPa 0,0 mm 3,9 km/h (1 Bft) S-SW 202 3,0 C 3,4 km/h (1 Bft)
21.05.2015 09:05 4,9 C 5,6 C 88 % 1018,8 hPa 0,0 mm 3,6 km/h (1 Bft) SW 225 3,1 C 6,7 km/h (2 Bft)
21.05.2015 09:10 5,0 C 5,7 C 87 % 1018,8 hPa 0,0 mm 4,7 km/h (1 Bft) N-NO 22 3,0 C 3,9 km/h (1 Bft)
21.05.2015 09:15 5,1 C 5,8 C 87 % 1019,2 hPa 0,0 mm 3,9 km/h (1 Bft) SW 225 3,1 C 2,8 km/h (1 Bft)
21.05.2015 09:20 5,3 C 6,0 C 87 % 1019,2 hPa 0,0 mm 0,8 km/h (0 Bft) W 270 3,3 C 0,0 km/h (0 Bft)
21.05.2015 09:25 5,4 C 6,1 C 87 % 1019,2 hPa 0,0 mm 0,5 km/h (0 Bft) N-NW 337 3,4 C 0,0 km/h (0 Bft)
21.05.2015 09:30 5,5 C 6,2 C 87 % 1019,2 hPa 0,0 mm 0,5 km/h (0 Bft) SW 225 3,5 C 5,4 km/h (1 Bft)
21.05.2015 09:35 5,5 C 6,1 C 87 % 1019,2 hPa 0,0 mm 0,8 km/h (0 Bft) SW 225 3,5 C 0,0 km/h (0 Bft)
21.05.2015 09:40 5,6 C 6,3 C 87 % 1019,2 hPa 0,0 mm 0,5 km/h (0 Bft) S 180 3,6 C 0,0 km/h (0 Bft)
21.05.2015 09:45 5,6 C 6,4 C 87 % 1019,2 hPa 0,0 mm 0,0 km/h (0 Bft) SW 225 3,6 C 0,0 km/h (0 Bft)
21.05.2015 09:50 5,5 C 6,3 C 87 % 1019,2 hPa 0,0 mm 1,6 km/h (1 Bft) SW 225 3,5 C 3,1 km/h (1 Bft)
21.05.2015 09:55 5,6 C 6,2 C 87 % 1019,3 hPa 0,0 mm 1,8 km/h (1 Bft) W-SW 247 3,6 C 0,0 km/h (0 Bft)
21.05.2015 10:00 5,6 C 6,2 C 87 % 1019,3 hPa 0,0 mm 1,8 km/h (1 Bft) S-SW 202 3,6 C 4,7 km/h (1 Bft)
21.05.2015 10:05 5,7 C 6,4 C 87 % 1019,3 hPa 0,0 mm 1,3 km/h (1 Bft) W 270 3,7 C 0,0 km/h (0 Bft)
21.05.2015 10:10 5,8 C 6,4 C 87 % 1019,3 hPa 0,0 mm 0,5 km/h (0 Bft) S-SW 202 3,8 C 0,0 km/h (0 Bft)
21.05.2015 10:15 5,7 C 6,4 C 87 % 1019,4 hPa 0,0 mm 2,1 km/h (1 Bft) SW 225 3,7 C 2,8 km/h (1 Bft)
21.05.2015 10:20 5,7 C 6,4 C 87 % 1019,4 hPa 0,0 mm 3,6 km/h (1 Bft) S 180 3,7 C 0,0 km/h (0 Bft)
21.05.2015 10:25 5,6 C 6,3 C 87 % 1019,4 hPa 0,0 mm 2,1 km/h (1 Bft) SW 225 3,6 C 0,0 km/h (0 Bft)
21.05.2015 10:30 5,7 C 6,2 C 87 % 1019,4 hPa 0,0 mm 0,5 km/h (0 Bft) W-SW 247 3,7 C 0,0 km/h (0 Bft)
21.05.2015 10:35 5,8 C 6,3 C 87 % 1019,5 hPa 0,0 mm 0,3 km/h (0 Bft) W-SW 247 3,8 C 5,4 km/h (1 Bft)
21.05.2015 10:40 5,7 C 6,1 C 87 % 1019,5 hPa 0,0 mm 2,3 km/h (1 Bft) SW 225 3,7 C 4,9 km/h (1 Bft)
21.05.2015 10:45 5,8 C 6,2 C 87 % 1019,5 hPa 0,0 mm 3,1 km/h (1 Bft) W-SW 247 3,8 C 6,5 km/h (2 Bft)
21.05.2015 10:50 5,8 C 6,2 C 87 % 1019,5 hPa 0,0 mm 2,1 km/h (1 Bft) NW 315 3,8 C 0,0 km/h (0 Bft)
21.05.2015 10:55 5,8 C 6,2 C 87 % 1019,8 hPa 0,0 mm 1,6 km/h (1 Bft) W-NW 292 3,8 C 0,0 km/h (0 Bft)
21.05.2015 11:00 5,8 C 6,1 C 87 % 1019,8 hPa 0,0 mm 1,0 km/h (0 Bft) SW 225 3,8 C 2,6 km/h (1 Bft)
21.05.2015 11:05 5,8 C 6,0 C 87 % 1019,8 hPa 0,0 mm 1,3 km/h (1 Bft) SW 225 3,8 C 5,4 km/h (1 Bft)
21.05.2015 11:10 5,8 C 6,1 C 87 % 1019,8 hPa 0,0 mm 0,8 km/h (0 Bft) SW 225 3,8 C 0,0 km/h (0 Bft)
21.05.2015 11:15 5,9 C 6,1 C 87 % 1019,9 hPa 0,0 mm 0,3 km/h (0 Bft) W 270 3,9 C 0,0 km/h (0 Bft)
21.05.2015 11:20 6,0 C 6,2 C 86 % 1019,9 hPa 0,0 mm 0,0 km/h (0 Bft) SW 225 3,8 C 2,8 km/h (1 Bft)
21.05.2015 11:25 6,0 C 6,2 C 86 % 1019,9 hPa 0,0 mm 0,3 km/h (0 Bft) NW 315 3,8 C 0,0 km/h (0 Bft)
21.05.2015 11:30 6,0 C 6,2 C 86 % 1019,9 hPa 0,0 mm 1,6 km/h (1 Bft) SW 225 3,8 C 7,5 km/h (2 Bft)
21.05.2015 11:35 6,0 C 6,2 C 86 % 1020,0 hPa 0,0 mm 1,6 km/h (1 Bft) W 270 3,8 C 0,0 km/h (0 Bft)
21.05.2015 11:40 6,1 C 6,2 C 86 % 1020,0 hPa 0,0 mm 0,8 km/h (0 Bft) W 270 3,9 C 0,0 km/h (0 Bft)
21.05.2015 11:45 6,1 C 6,3 C 86 % 1020,0 hPa 0,0 mm 0,3 km/h (0 Bft) SW 225 3,9 C 0,0 km/h (0 Bft)
21.05.2015 11:50 6,0 C 6,0 C 86 % 1020,0 hPa 0,0 mm 2,1 km/h (1 Bft) W-NW 292 3,8 C 5,2 km/h (1 Bft)
21.05.2015 11:55 5,9 C 5,9 C 87 % 1019,9 hPa 0,0 mm 3,4 km/h (1 Bft) W 270 3,9 C 2,6 km/h (1 Bft)
21.05.2015 12:00 5,9 C 6,0 C 87 % 1019,9 hPa 0,0 mm 2,3 km/h (1 Bft) NW 315 3,9 C 0,0 km/h (0 Bft)
21.05.2015 12:05 6,0 C 6,0 C 86 % 1019,9 hPa 0,0 mm 1,6 km/h (1 Bft) W-NW 292 3,8 C 2,6 km/h (1 Bft)
21.05.2015 12:10 6,0 C 6,1 C 86 % 1019,9 hPa 0,0 mm 0,8 km/h (0 Bft) NW 315 3,8 C 0,0 km/h (0 Bft)
21.05.2015 12:15 6,0 C 6,2 C 86 % 1020,1 hPa 0,0 mm 0,5 km/h (0 Bft) W-SW 247 3,8 C 0,0 km/h (0 Bft)
21.05.2015 12:20 6,0 C 6,1 C 86 % 1020,1 hPa 0,0 mm 1,0 km/h (0 Bft) NW 315 3,8 C 3,1 km/h (1 Bft)
21.05.2015 12:25 6,0 C 6,1 C 86 % 1020,1 hPa 0,0 mm 1,6 km/h (1 Bft) W 270 3,8 C 3,4 km/h (1 Bft)
21.05.2015 12:30 6,0 C 6,2 C 86 % 1020,1 hPa 0,0 mm 1,0 km/h (0 Bft) NW 315 3,8 C 0,0 km/h (0 Bft)
21.05.2015 12:35 6,0 C 6,2 C 86 % 1020,1 hPa 0,0 mm 1,8 km/h (1 Bft) NW 315 3,8 C 4,4 km/h (1 Bft)
21.05.2015 12:40 6,0 C 6,3 C 86 % 1020,1 hPa 0,7 mm 2,1 km/h (1 Bft) NW 315 3,8 C 2,6 km/h (1 Bft)
21.05.2015 12:45 6,0 C 6,2 C 86 % 1020,1 hPa 0,0 mm 1,6 km/h (1 Bft) NW 315 3,8 C 0,0 km/h (0 Bft)
21.05.2015 12:50 6,0 C 6,2 C 86 % 1020,1 hPa 0,0 mm 0,5 km/h (0 Bft) W-SW 247 3,8 C 3,4 km/h (1 Bft)
21.05.2015 12:55 6,0 C 6,0 C 86 % 1020,2 hPa 0,0 mm 0,3 km/h (0 Bft) S 180 3,8 C 0,0 km/h (0 Bft)
21.05.2015 13:00 5,9 C 6,0 C 87 % 1020,2 hPa 0,0 mm 0,3 km/h (0 Bft) W-SW 247 3,9 C 0,0 km/h (0 Bft)
21.05.2015 13:05 5,9 C 6,0 C 87 % 1020,2 hPa 0,0 mm 0,0 km/h (0 Bft) W 270 3,9 C 0,0 km/h (0 Bft)
21.05.2015 13:10 6,0 C 6,0 C 86 % 1020,2 hPa 0,0 mm 0,3 km/h (0 Bft) W 270 3,8 C 0,0 km/h (0 Bft)
21.05.2015 13:15 6,0 C 6,0 C 86 % 1020,6 hPa 0,0 mm 0,3 km/h (0 Bft) W-SW 247 3,8 C 0,0 km/h (0 Bft)
21.05.2015 13:20 5,9 C 6,0 C 87 % 1020,6 hPa 0,0 mm 1,0 km/h (0 Bft) S-SW 202 3,9 C 0,0 km/h (0 Bft)
21.05.2015 13:25 5,9 C 6,0 C 87 % 1020,6 hPa 0,0 mm 1,0 km/h (0 Bft) SW 225 3,9 C 0,0 km/h (0 Bft)
21.05.2015 13:30 5,8 C 6,0 C 87 % 1020,6 hPa 0,7 mm 0,0 km/h (0 Bft) W 270 3,8 C 0,0 km/h (0 Bft)
21.05.2015 13:35 5,9 C 6,1 C 87 % 1020,6 hPa 0,0 mm 0,0 km/h (0 Bft) W 270 3,9 C 0,0 km/h (0 Bft)
21.05.2015 13:40 5,9 C 6,1 C 87 % 1020,6 hPa 0,0 mm 0,5 km/h (0 Bft) W-SW 247 3,9 C 0,0 km/h (0 Bft)
21.05.2015 13:45 6,0 C 6,1 C 86 % 1020,6 hPa 0,0 mm 0,5 km/h (0 Bft) W-SW 247 3,8 C 0,0 km/h (0 Bft)
21.05.2015 13:50 6,0 C 6,2 C 86 % 1020,6 hPa 0,0 mm 2,1 km/h (1 Bft) N-NO 22 3,8 C 4,4 km/h (1 Bft)
21.05.2015 13:55 6,1 C 6,2 C 86 % 1020,4 hPa 0,0 mm 2,8 km/h (1 Bft) NW 315 3,9 C 4,7 km/h (1 Bft)
21.05.2015 14:00 6,0 C 6,1 C 86 % 1020,4 hPa 0,0 mm 2,6 km/h (1 Bft) W-NW 292 3,8 C 0,0 km/h (0 Bft)
21.05.2015 14:05 6,0 C 6,2 C 86 % 1020,4 hPa 0,0 mm 2,3 km/h (1 Bft) N-NO 22 3,8 C 4,9 km/h (1 Bft)
21.05.2015 14:10 6,1 C 6,2 C 87 % 1020,4 hPa 0,0 mm 1,0 km/h (0 Bft) N-NW 337 4,1 C 0,0 km/h (0 Bft)
21.05.2015 14:15 6,1 C 6,2 C 87 % 1020,7 hPa 0,0 mm 0,8 km/h (0 Bft) W 270 4,1 C 2,6 km/h (1 Bft)
21.05.2015 14:20 6,2 C 6,3 C 87 % 1020,7 hPa 0,7 mm 0,3 km/h (0 Bft) NO 45 4,2 C 0,0 km/h (0 Bft)
21.05.2015 14:25 6,2 C 6,4 C 87 % 1020,7 hPa 0,0 mm 0,0 km/h (0 Bft) N-NO 22 4,2 C 0,0 km/h (0 Bft)
21.05.2015 14:30 6,2 C 6,5 C 87 % 1020,7 hPa 0,0 mm 1,0 km/h (0 Bft) O 90 4,2 C 2,8 km/h (1 Bft)
21.05.2015 14:35 6,3 C 6,5 C 87 % 1020,5 hPa 0,0 mm 1,0 km/h (0 Bft) O-SO 112 4,3 C 0,0 km/h (0 Bft)
21.05.2015 14:40 6,2 C 6,6 C 87 % 1020,5 hPa 0,0 mm 0,3 km/h (0 Bft) S 180 4,2 C 0,0 km/h (0 Bft)
21.05.2015 14:45 6,3 C 6,6 C 86 % 1020,5 hPa 0,0 mm 0,0 km/h (0 Bft) O-SO 112 4,1 C 0,0 km/h (0 Bft)
21.05.2015 14:50 6,3 C 6,5 C 86 % 1020,5 hPa 0,0 mm 0,0 km/h (0 Bft) SO 135 4,1 C 0,0 km/h (0 Bft)
21.05.2015 14:55 6,2 C 6,5 C 86 % 1020,5 hPa 0,0 mm 0,0 km/h (0 Bft) W-SW 247 4,0 C 0,0 km/h (0 Bft)
21.05.2015 15:00 6,2 C 6,4 C 86 % 1020,5 hPa 0,0 mm 0,0 km/h (0 Bft) SW 225 4,0 C 0,0 km/h (0 Bft)
21.05.2015 15:05 6,3 C 6,6 C 86 % 1020,5 hPa 0,0 mm 0,0 km/h (0 Bft) W-SW 247 4,1 C 0,0 km/h (0 Bft)
21.05.2015 15:10 6,5 C 7,0 C 86 % 1020,5 hPa 0,0 mm 0,5 km/h (0 Bft) W 270 4,3 C 0,0 km/h (0 Bft)
21.05.2015 15:15 6,6 C 7,1 C 86 % 1020,6 hPa 0,0 mm 1,8 km/h (1 Bft) W-SW 247 4,4 C 3,4 km/h (1 Bft)
21.05.2015 15:20 6,6 C 6,9 C 86 % 1020,6 hPa 0,7 mm 2,8 km/h (1 Bft) SW 225 4,4 C 6,2 km/h (2 Bft)
21.05.2015 15:25 6,5 C 6,8 C 86 % 1020,6 hPa 0,0 mm 2,8 km/h (1 Bft) SW 225 4,3 C 3,1 km/h (1 Bft)
21.05.2015 15:30 6,6 C 6,9 C 86 % 1020,6 hPa 0,0 mm 2,3 km/h (1 Bft) NW 315 4,4 C 2,6 km/h (1 Bft)
21.05.2015 15:35 6,6 C 6,8 C 86 % 1020,8 hPa 0,0 mm 1,0 km/h (0 Bft) S 180 4,4 C 0,0 km/h (0 Bft)
21.05.2015 15:40 6,7 C 7,1 C 86 % 1020,8 hPa 0,0 mm 0,8 km/h (0 Bft) SW 225 4,5 C 4,1 km/h (1 Bft)
21.05.2015 15:45 6,9 C 7,5 C 86 % 1020,8 hPa 0,0 mm 1,3 km/h (1 Bft) W-SW 247 4,7 C 2,6 km/h (1 Bft)
21.05.2015 15:50 7,1 C 7,9 C 86 % 1020,8 hPa 0,0 mm 1,8 km/h (1 Bft) SW 225 4,9 C 0,0 km/h (0 Bft)
21.05.2015 15:55 7,2 C 7,9 C 86 % 1020,9 hPa 0,0 mm 2,1 km/h (1 Bft) SW 225 5,0 C 4,4 km/h (1 Bft)
21.05.2015 16:00 7,0 C 7,6 C 86 % 1020,9 hPa 0,0 mm 2,6 km/h (1 Bft) S 180 4,8 C 2,6 km/h (1 Bft)
21.05.2015 16:05 7,0 C 7,3 C 86 % 1020,9 hPa 0,0 mm 2,3 km/h (1 Bft) W-SW 247 4,8 C 0,0 km/h (0 Bft)
21.05.2015 16:10 7,0 C 7,3 C 86 % 1020,9 hPa 0,0 mm 1,0 km/h (0 Bft) W-SW 247 4,8 C 6,5 km/h (2 Bft)
21.05.2015 16:15 7,0 C 7,2 C 86 % 1020,8 hPa 0,7 mm 0,8 km/h (0 Bft) W-NW 292 4,8 C 2,8 km/h (1 Bft)
21.05.2015 16:20 7,0 C 7,1 C 86 % 1020,8 hPa 0,0 mm 1,3 km/h (1 Bft) W 270 4,8 C 3,4 km/h (1 Bft)
21.05.2015 16:25 7,0 C 7,1 C 86 % 1020,8 hPa 0,0 mm 1,8 km/h (1 Bft) W-NW 292 4,8 C 8,8 km/h (2 Bft)
21.05.2015 16:30 7,0 C 7,1 C 86 % 1020,8 hPa 0,0 mm 4,1 km/h (1 Bft) NW 315 4,8 C 2,8 km/h (1 Bft)
21.05.2015 16:35 7,0 C 6,9 C 86 % 1020,9 hPa 0,0 mm 6,2 km/h (2 Bft) NW 315 4,8 C 5,7 km/h (1 Bft)
21.05.2015 16:40 6,9 C 6,8 C 86 % 1020,9 hPa 0,0 mm 7,3 km/h (2 Bft) NW 315 4,7 C 7,3 km/h (2 Bft)
21.05.2015 16:45 6,9 C 6,8 C 86 % 1020,9 hPa 0,0 mm 7,3 km/h (2 Bft) NW 315 4,7 C 8,5 km/h (2 Bft)
21.05.2015 16:50 7,0 C 7,0 C 86 % 1020,9 hPa 0,0 mm 5,4 km/h (1 Bft) W 270 4,8 C 6,0 km/h (2 Bft)
21.05.2015 16:55 6,9 C 7,0 C 86 % 1021,2 hPa 0,0 mm 4,7 km/h (1 Bft) W-NW 292 4,7 C 2,6 km/h (1 Bft)
21.05.2015 17:00 7,0 C 7,2 C 86 % 1021,2 hPa 0,0 mm 2,8 km/h (1 Bft) N-NW 337 4,8 C 3,9 km/h (1 Bft)
21.05.2015 17:05 7,1 C 7,2 C 86 % 1021,2 hPa 0,0 mm 1,3 km/h (1 Bft) SW 225 4,9 C 0,0 km/h (0 Bft)
21.05.2015 17:10 7,1 C 7,1 C 86 % 1021,2 hPa 0,0 mm 0,8 km/h (0 Bft) S-SO 157 4,9 C 2,6 km/h (1 Bft)
21.05.2015 17:15 7,0 C 7,1 C 86 % 1021,2 hPa 0,0 mm 0,8 km/h (0 Bft) S 180 4,8 C 0,0 km/h (0 Bft)
21.05.2015 17:20 6,9 C 7,0 C 86 % 1021,2 hPa 0,0 mm 0,5 km/h (0 Bft) S-SW 202 4,7 C 0,0 km/h (0 Bft)
21.05.2015 17:25 6,9 C 7,0 C 86 % 1021,2 hPa 0,0 mm 0,0 km/h (0 Bft) W 270 4,7 C 0,0 km/h (0 Bft)
21.05.2015 17:30 7,0 C 7,1 C 86 % 1021,2 hPa 0,7 mm 0,0 km/h (0 Bft) NW 315 4,8 C 0,0 km/h (0 Bft)
21.05.2015 17:35 6,9 C 7,0 C 86 % 1021,6 hPa 0,0 mm 1,3 km/h (1 Bft) S 180 4,7 C 8,5 km/h (2 Bft)
21.05.2015 17:40 6,7 C 6,8 C 86 % 1021,6 hPa 0,0 mm 3,1 km/h (1 Bft) SW 225 4,5 C 3,1 km/h (1 Bft)
21.05.2015 17:45 6,7 C 6,8 C 86 % 1021,6 hPa 0,0 mm 4,1 km/h (1 Bft) W-SW 247 4,5 C 4,1 km/h (1 Bft)
21.05.2015 17:50 6,6 C 6,7 C 86 % 1021,6 hPa 0,0 mm 2,6 km/h (1 Bft) W-SW 247 4,4 C 0,0 km/h (0 Bft)
21.05.2015 17:55 6,6 C 6,7 C 86 % 1021,5 hPa 0,0 mm 1,0 km/h (0 Bft) S-SW 202 4,4 C 0,0 km/h (0 Bft)
21.05.2015 18:00 6,4 C 6,5 C 86 % 1021,5 hPa 0,7 mm 0,3 km/h (0 Bft) O-SO 112 4,2 C 0,0 km/h (0 Bft)
21.05.2015 18:05 6,4 C 6,3 C 87 % 1021,5 hPa 0,0 mm 1,0 km/h (0 Bft) O-NO 67 4,4 C 0,0 km/h (0 Bft)
21.05.2015 18:10 6,2 C 6,1 C 87 % 1021,5 hPa 0,0 mm 2,1 km/h (1 Bft) O-NO 67 4,2 C 0,0 km/h (0 Bft)
21.05.2015 18:15 6,2 C 6,2 C 86 % 1021,7 hPa 0,7 mm 1,3 km/h (1 Bft) S 180 4,0 C 0,0 km/h (0 Bft)
21.05.2015 18:20 6,2 C 6,2 C 86 % 1021,7 hPa 0,0 mm 0,5 km/h (0 Bft) S 180 4,0 C 0,0 km/h (0 Bft)
21.05.2015 18:25 6,1 C 6,1 C 86 % 1021,7 hPa 0,0 mm 1,0 km/h (0 Bft) S-SO 157 3,9 C 0,0 km/h (0 Bft)
21.05.2015 18:30 6,1 C 6,2 C 86 % 1021,7 hPa 0,7 mm 1,6 km/h (1 Bft) W-SW 247 3,9 C 2,8 km/h (1 Bft)
21.05.2015 18:35 6,1 C 6,2 C 86 % 1022,1 hPa 0,0 mm 1,6 km/h (1 Bft) SW 225 3,9 C 6,5 km/h (2 Bft)
21.05.2015 18:40 6,0 C 6,1 C 86 % 1022,1 hPa 0,0 mm 3,4 km/h (1 Bft) SW 225 3,8 C 3,6 km/h (1 Bft)
21.05.2015 18:45 6,0 C 6,1 C 86 % 1022,1 hPa 0,0 mm 3,9 km/h (1 Bft) SW 225 3,8 C 2,6 km/h (1 Bft)
21.05.2015 18:50 6,1 C 6,2 C 86 % 1022,1 hPa 0,0 mm 1,6 km/h (1 Bft) S 180 3,9 C 0,0 km/h (0 Bft)
21.05.2015 18:55 6,1 C 6,3 C 86 % 1022,1 hPa 0,0 mm 0,0 km/h (0 Bft) SW 225 3,9 C 0,0 km/h (0 Bft)
21.05.2015 19:00 6,2 C 6,3 C 86 % 1022,1 hPa 0,0 mm 0,8 km/h (0 Bft) S-SW 202 4,0 C 0,0 km/h (0 Bft)
21.05.2015 19:05 6,1 C 6,2 C 86 % 1022,1 hPa 0,0 mm 1,8 km/h (1 Bft) SW 225 3,9 C 3,1 km/h (1 Bft)
21.05.2015 19:10 6,1 C 6,1 C 86 % 1022,1 hPa 0,0 mm 2,1 km/h (1 Bft) SW 225 3,9 C 0,0 km/h (0 Bft)
21.05.2015 19:15 6,1 C 6,1 C 86 % 1022,2 hPa 0,7 mm 1,3 km/h (1 Bft) W-NW 292 3,9 C 0,0 km/h (0 Bft)
21.05.2015 19:20 6,1 C 6,1 C 86 % 1022,2 hPa 0,0 mm 0,3 km/h (0 Bft) S 180 3,9 C 0,0 km/h (0 Bft)
21.05.2015 19:25 6,1 C 6,1 C 86 % 1022,2 hPa 0,0 mm 0,3 km/h (0 Bft) W-NW 292 3,9 C 0,0 km/h (0 Bft)
21.05.2015 19:30 6,1 C 6,0 C 88 % 1022,2 hPa 0,0 mm 0,3 km/h (0 Bft) SW 225 4,3 C 3,1 km/h (1 Bft)
21.05.2015 19:35 6,0 C 5,9 C 88 % 1022,5 hPa 0,7 mm 2,3 km/h (1 Bft) S 180 4,2 C 6,7 km/h (2 Bft)
21.05.2015 19:40 6,0 C 5,9 C 88 % 1022,5 hPa 0,0 mm 5,2 km/h (1 Bft) SW 225 4,2 C 0,0 km/h (0 Bft)
21.05.2015 19:45 6,0 C 5,9 C 88 % 1022,5 hPa 0,0 mm 5,4 km/h (1 Bft) SW 225 4,2 C 5,2 km/h (1 Bft)
21.05.2015 19:50 6,0 C 5,9 C 88 % 1022,5 hPa 0,0 mm 3,6 km/h (1 Bft) S 180 4,2 C 0,0 km/h (0 Bft)
21.05.2015 19:55 6,0 C 5,9 C 88 % 1022,4 hPa 0,0 mm 2,3 km/h (1 Bft) S-SO 157 4,2 C 0,0 km/h (0 Bft)
21.05.2015 20:00 6,0 C 6,0 C 87 % 1022,4 hPa 0,0 mm 0,0 km/h (0 Bft) S-SO 157 4,0 C 0,0 km/h (0 Bft)
21.05.2015 20:05 6,0 C 5,9 C 89 % 1022,4 hPa 0,0 mm 0,0 km/h (0 Bft) SO 135 4,3 C 0,0 km/h (0 Bft)
21.05.2015 20:10 6,0 C 5,9 C 89 % 1022,4 hPa 0,0 mm 0,0 km/h (0 Bft) O-NO 67 4,3 C 0,0 km/h (0 Bft)
21.05.2015 20:15 6,0 C 5,9 C 89 % 1022,6 hPa 0,0 mm 0,0 km/h (0 Bft) NW 315 4,3 C 0,0 km/h (0 Bft)
21.05.2015 20:20 6,0 C 5,9 C 89 % 1022,6 hPa 0,7 mm 0,0 km/h (0 Bft) NW 315 4,3 C 0,0 km/h (0 Bft)
21.05.2015 20:25 5,9 C 5,8 C 89 % 1022,6 hPa 0,0 mm 0,0 km/h (0 Bft) SW 225 4,2 C 0,0 km/h (0 Bft)
21.05.2015 20:30 5,7 C 5,7 C 87 % 1022,6 hPa 0,0 mm 0,0 km/h (0 Bft) W-NW 292 3,7 C 0,0 km/h (0 Bft)
21.05.2015 20:35 5,7 C 5,6 C 89 % 1022,8 hPa 0,0 mm 0,0 km/h (0 Bft) O-SO 112 4,0 C 0,0 km/h (0 Bft)
21.05.2015 20:40 5,6 C 5,5 C 89 % 1022,8 hPa 0,0 mm 0,5 km/h (0 Bft) S 180 3,9 C 3,6 km/h (1 Bft)
21.05.2015 20:45 5,6 C 5,4 C 89 % 1022,8 hPa 0,0 mm 0,8 km/h (0 Bft) W 270 3,9 C 0,0 km/h (0 Bft)
21.05.2015 20:50 5,5 C 5,4 C 89 % 1022,8 hPa 0,0 mm 0,5 km/h (0 Bft) N 360 3,8 C 2,8 km/h (1 Bft)
21.05.2015 20:55 5,5 C 5,3 C 89 % 1022,8 hPa 0,0 mm 0,3 km/h (0 Bft) N-NW 337 3,8 C 0,0 km/h (0 Bft)
21.05.2015 21:00 5,4 C 5,2 C 89 % 1022,8 hPa 0,0 mm 0,5 km/h (0 Bft) W 270 3,7 C 0,0 km/h (0 Bft)
21.05.2015 21:05 5,3 C 5,1 C 89 % 1022,8 hPa 0,0 mm 0,3 km/h (0 Bft) SW 225 3,6 C 0,0 km/h (0 Bft)
21.05.2015 21:10 5,2 C 5,0 C 89 % 1022,8 hPa 0,0 mm 0,5 km/h (0 Bft) W-SW 247 3,5 C 0,0 km/h (0 Bft)
21.05.2015 21:15 5,2 C 5,0 C 89 % 1022,9 hPa 0,0 mm 0,5 km/h (0 Bft) NW 315 3,5 C 0,0 km/h (0 Bft)
21.05.2015 21:20 5,1 C 4,9 C 89 % 1022,9 hPa 0,0 mm 0,5 km/h (0 Bft) S 180 3,4 C 0,0 km/h (0 Bft)
21.05.2015 21:25 5,0 C 4,8 C 89 % 1022,9 hPa 0,0 mm 1,0 km/h (0 Bft) W 270 3,3 C 6,5 km/h (2 Bft)
21.05.2015 21:30 4,9 C 4,7 C 89 % 1022,9 hPa 0,0 mm 1,3 km/h (1 Bft) NW 315 3,2 C 0,0 km/h (0 Bft)
21.05.2015 21:35 4,9 C 4,7 C 89 % 1022,9 hPa 0,0 mm 1,3 km/h (1 Bft) SW 225 3,2 C 0,0 km/h (0 Bft)
21.05.2015 21:40 4,9 C 4,7 C 89 % 1022,9 hPa 0,0 mm 0,5 km/h (0 Bft) SW 225 3,2 C 0,0 km/h (0 Bft)
21.05.2015 21:45 4,8 C 4,6 C 89 % 1022,9 hPa 0,0 mm 0,3 km/h (0 Bft) W-SW 247 3,1 C 0,0 km/h (0 Bft)
21.05.2015 21:50 4,8 C 4,6 C 89 % 1022,9 hPa 0,7 mm 0,0 km/h (0 Bft) N-NO 22 3,1 C 0,0 km/h (0 Bft)
21.05.2015 21:55 4,8 C 4,6 C 89 % 1023,1 hPa 0,0 mm 0,0 km/h (0 Bft) NW 315 3,1 C 0,0 km/h (0 Bft)
21.05.2015 22:00 4,8 C 4,6 C 89 % 1023,1 hPa 0,0 mm 0,0 km/h (0 Bft) NW 315 3,1 C 0,0 km/h (0 Bft)
21.05.2015 22:05 4,7 C 4,5 C 89 % 1023,1 hPa 0,0 mm 0,0 km/h (0 Bft) W 270 3,0 C 0,0 km/h (0 Bft)
21.05.2015 22:10 4,7 C 4,5 C 89 % 1023,1 hPa 0,0 mm 0,0 km/h (0 Bft) O 90 3,0 C 0,0 km/h (0 Bft)
21.05.2015 22:15 4,6 C 4,4 C 89 % 1023,2 hPa 0,0 mm 0,3 km/h (0 Bft) W 270 2,9 C 0,0 km/h (0 Bft)
21.05.2015 22:20 4,6 C 4,4 C 90 % 1023,2 hPa 0,0 mm 0,3 km/h (0 Bft) W 270 3,1 C 0,0 km/h (0 Bft)
21.05.2015 22:25 4,6 C 4,4 C 90 % 1023,2 hPa 0,0 mm 0,3 km/h (0 Bft) N-NW 337 3,1 C 2,6 km/h (1 Bft)
21.05.2015 22:30 4,6 C 4,4 C 90 % 1023,2 hPa 0,0 mm 0,3 km/h (0 Bft) NO 45 3,1 C 3,1 km/h (1 Bft)
21.05.2015 22:35 4,6 C 4,4 C 90 % 1023,4 hPa 0,0 mm 0,3 km/h (0 Bft) NO 45 3,1 C 0,0 km/h (0 Bft)
21.05.2015 22:40 4,6 C 4,4 C 90 % 1023,4 hPa 0,0 mm 0,3 km/h (0 Bft) N 360 3,1 C 0,0 km/h (0 Bft)
21.05.2015 22:45 4,6 C 4,4 C 90 % 1023,4 hPa 0,0 mm 0,3 km/h (0 Bft) NW 315 3,1 C 3,4 km/h (1 Bft)
21.05.2015 22:50 4,6 C 4,4 C 90 % 1023,4 hPa 0,0 mm 0,0 km/h (0 Bft) N-NO 22 3,1 C 0,0 km/h (0 Bft)
21.05.2015 22:55 4,6 C 4,4 C 90 % 1023,6 hPa 0,0 mm 0,3 km/h (0 Bft) N-NO 22 3,1 C 0,0 km/h (0 Bft)
21.05.2015 23:00 4,6 C 4,4 C 90 % 1023,6 hPa 0,0 mm 0,3 km/h (0 Bft) NW 315 3,1 C 0,0 km/h (0 Bft)
21.05.2015 23:05 4,6 C 4,4 C 90 % 1023,6 hPa 0,0 mm 0,3 km/h (0 Bft) NW 315 3,1 C 3,1 km/h (1 Bft)
21.05.2015 23:10 4,6 C 4,4 C 90 % 1023,6 hPa 0,0 mm 0,3 km/h (0 Bft) N-NO 22 3,1 C 0,0 km/h (0 Bft)
21.05.2015 23:15 4,6 C 4,4 C 90 % 1023,5 hPa 0,0 mm 0,3 km/h (0 Bft) W-NW 292 3,1 C 0,0 km/h (0 Bft)
21.05.2015 23:20 4,7 C 4,5 C 90 % 1023,5 hPa 0,0 mm 0,0 km/h (0 Bft) W-NW 292 3,2 C 0,0 km/h (0 Bft)
21.05.2015 23:25 4,7 C 4,5 C 90 % 1023,5 hPa 0,0 mm 0,0 km/h (0 Bft) N-NW 337 3,2 C 0,0 km/h (0 Bft)
21.05.2015 23:30 4,6 C 4,4 C 90 % 1023,5 hPa 0,0 mm 0,0 km/h (0 Bft) NW 315 3,1 C 0,0 km/h (0 Bft)
21.05.2015 23:35 4,6 C 4,4 C 90 % 1023,3 hPa 0,0 mm 0,0 km/h (0 Bft) W-NW 292 3,1 C 0,0 km/h (0 Bft)
21.05.2015 23:40 4,6 C 4,4 C 90 % 1023,3 hPa 0,0 mm 0,3 km/h (0 Bft) NW 315 3,1 C 0,0 km/h (0 Bft)
21.05.2015 23:45 4,7 C 4,5 C 90 % 1023,3 hPa 0,0 mm 0,3 km/h (0 Bft) N-NW 337 3,2 C 0,0 km/h (0 Bft)
21.05.2015 23:50 4,6 C 4,4 C 90 % 1023,3 hPa 0,0 mm 0,3 km/h (0 Bft) W 270 3,1 C 0,0 km/h (0 Bft)
21.05.2015 23:55 4,6 C 4,4 C 90 % 1023,2 hPa 0,0 mm 0,0 km/h (0 Bft) W-NW 292 3,1 C 0,0 km/h (0 Bft)
_ Min-Zeit 07:30 04:55 19:25 01:30 - 23:55 - - 07:30 23:55
Minimum _ 3,6 C 3,4 C 86 % 1016,8 hPa - 0,0 km/h (0 Bft) - - 1,8 C 0,0 km/h (0 Bft)
_ Max-Zeit 15:55 15:55 06:35 23:10 21:50 16:45 - - 15:55 01:15
Maximum _ 7,2 C 7,9 C 91 % 1023,6 hPa 0,7 mm 7,3 km/h
NW (2 Bft)
- - 5,0 C 18,6 km/h
W (3 Bft)
Durchschnitt _ 5,2 C 5,2 C 88 % 1019,9 hPa #13,7 mm 1,8 km/h (1 Bft) SW - 3,4 C 2,4 km/h (1 Bft)